createdAt,value
2019-02-27T00:01:11.712Z,92.03
2019-02-27T00:06:53.055Z,81.82
2019-02-27T00:09:41.082Z,89.83
2019-02-27T00:18:29.684Z,80.13
2019-02-27T00:21:18.027Z,85.27
2019-02-27T00:24:06.520Z,83.13
2019-02-27T00:27:14.729Z,85.00
2019-02-27T00:30:04.923Z,80.93
2019-02-27T00:32:52.698Z,76.93
2019-02-27T00:35:40.633Z,76.13
2019-02-27T00:38:28.558Z,90.57
2019-02-27T00:41:16.445Z,83.03
2019-02-27T00:44:04.407Z,79.10
2019-02-27T00:49:46.410Z,77.93
2019-02-27T00:52:34.787Z,85.53
2019-02-27T00:55:22.938Z,88.70
2019-02-27T00:58:10.961Z,108.83
2019-02-27T01:00:59.178Z,102.40
2019-02-27T01:10:14.245Z,89.77
2019-02-27T01:13:02.167Z,84.40
2019-02-27T01:18:44.554Z,85.50
2019-02-27T01:31:00.770Z,85.93
2019-02-27T01:36:58.040Z,82.27
2019-02-27T01:42:59.045Z,79.40
2019-02-27T01:48:22.935Z,79.03
2019-02-27T01:51:03.703Z,83.97
2019-02-27T01:53:44.566Z,84.83
2019-02-27T01:56:28.907Z,83.77
2019-02-27T01:59:07.881Z,77.77
2019-02-27T02:01:47.726Z,74.87
2019-02-27T02:04:35.679Z,79.60
2019-02-27T02:07:41.422Z,74.47
2019-02-27T02:10:47.594Z,79.77
2019-02-27T02:17:35.047Z,81.87
2019-02-27T02:20:42.301Z,86.33
2019-02-27T02:23:49.513Z,94.50
2019-02-27T02:27:14.269Z,80.87
2019-02-27T02:30:29.162Z,85.87
2019-02-27T02:33:30.540Z,80.13
2019-02-27T02:36:37.772Z,93.87
2019-02-27T02:42:33.771Z,70.83
2019-02-27T02:45:41.010Z,78.57
2019-02-27T02:48:48.251Z,81.67
2019-02-27T02:55:39.633Z,77.40
2019-02-27T02:58:48.490Z,75.63
2019-02-27T03:01:56.571Z,98.07
2019-02-27T03:04:37.307Z,80.60
2019-02-27T03:10:26.311Z,88.17
2019-02-27T03:13:07.464Z,104.67
2019-02-27T03:18:53.207Z,99.30
2019-02-27T03:21:33.908Z,81.20
2019-02-27T03:24:15.482Z,84.43
2019-02-27T03:26:56.470Z,96.00
2019-02-27T03:33:08.593Z,88.57
2019-02-27T03:46:52.766Z,87.03
2019-02-27T03:50:00.007Z,98.30
2019-02-27T03:52:53.791Z,87.67
2019-02-27T03:56:18.914Z,87.30
2019-02-27T03:59:25.719Z,93.43
2019-02-27T04:02:50.490Z,72.67
2019-02-27T04:19:40.125Z,76.30
2019-02-27T04:22:28.342Z,73.00
2019-02-27T04:28:09.866Z,76.80
2019-02-27T04:30:51.379Z,89.03
2019-02-27T04:33:32.697Z,75.37
2019-02-27T04:36:14.149Z,71.53
2019-02-27T04:38:55.229Z,88.57
2019-02-27T04:41:36.009Z,84.57
2019-02-27T04:44:16.410Z,88.63
2019-02-27T04:46:57.523Z,86.97
2019-02-27T04:49:38.424Z,83.30
2019-02-27T04:52:21.923Z,72.07
2019-02-27T04:55:02.493Z,92.93
2019-02-27T04:57:43.879Z,79.03
2019-02-27T05:00:26.261Z,71.47
2019-02-27T05:03:28.503Z,57.70
2019-02-27T05:06:12.033Z,67.07
2019-02-27T05:08:52.518Z,67.57
2019-02-27T05:11:33.262Z,56.20
2019-02-27T05:14:14.222Z,67.43
2019-02-27T05:16:55.470Z,69.75
2019-02-27T05:19:37.784Z,54.30
2019-02-27T05:25:01.758Z,55.73
2019-02-27T05:27:42.403Z,52.77
2019-02-27T05:30:12.772Z,52.50
2019-02-27T05:33:02.157Z,56.00
2019-02-27T05:38:44.293Z,59.30
2019-02-27T05:41:33.159Z,62.60
2019-02-27T05:44:22.420Z,56.97
2019-02-27T05:47:12.189Z,58.63
2019-02-27T05:50:01.530Z,59.20
2019-02-27T05:55:45.224Z,53.77
2019-02-27T05:58:33.198Z,55.30
2019-02-27T06:01:23.126Z,51.43
2019-02-27T06:04:11.067Z,56.50
2019-02-27T06:09:52.452Z,59.40
2019-02-27T06:15:36.949Z,51.67
2019-02-27T06:18:25.279Z,50.90
2019-02-27T06:21:13.353Z,50.23
2019-02-27T06:26:56.463Z,50.83
2019-02-27T06:29:25.262Z,42.93
2019-02-27T06:32:05.829Z,49.47
2019-02-27T06:34:46.647Z,47.90
2019-02-27T06:37:27.042Z,48.47
2019-02-27T06:43:12.785Z,54.03
2019-02-27T06:45:54.255Z,53.93
2019-02-27T06:48:35.450Z,48.17
2019-02-27T06:51:16.668Z,51.30
2019-02-27T06:53:57.458Z,41.97
2019-02-27T06:56:37.940Z,46.93
2019-02-27T06:59:19.165Z,38.00
2019-02-27T07:01:59.490Z,41.03
2019-02-27T07:04:40.272Z,49.03
2019-02-27T07:07:21.158Z,37.30
2019-02-27T07:10:01.703Z,39.27
2019-02-27T07:12:42.380Z,39.50
2019-02-27T07:15:23.841Z,37.15
2019-02-27T07:18:06.094Z,39.70
2019-02-27T07:20:50.298Z,40.10
2019-02-27T07:23:31.170Z,32.90
2019-02-27T07:26:13.239Z,40.28
2019-02-27T07:28:53.936Z,33.08
2019-02-27T07:31:37.022Z,35.52
2019-02-27T07:34:18.172Z,39.48
2019-02-27T07:36:59.174Z,31.43
2019-02-27T07:39:40.367Z,35.60
2019-02-27T07:42:21.141Z,33.73
2019-02-27T07:45:02.606Z,35.40
2019-02-27T07:47:43.267Z,34.78
2019-02-27T07:50:24.528Z,37.85
2019-02-27T07:53:05.365Z,33.18
2019-02-27T07:55:47.310Z,32.88
2019-02-27T07:58:31.218Z,34.03
2019-02-27T08:01:11.459Z,38.00
2019-02-27T08:03:52.264Z,32.78
2019-02-27T08:06:35.109Z,43.83
2019-02-27T08:12:25.175Z,33.77
2019-02-27T08:15:06.070Z,33.83
2019-02-27T08:20:52.102Z,33.35
2019-02-27T08:23:39.522Z,35.80
2019-02-27T08:26:27.573Z,33.78
2019-02-27T08:29:15.507Z,32.05
2019-02-27T08:32:05.408Z,33.60
2019-02-27T08:34:53.458Z,34.13
2019-02-27T08:37:41.417Z,42.53
2019-02-27T08:40:29.703Z,47.85
2019-02-27T08:43:17.722Z,31.87
2019-02-27T08:46:05.894Z,44.80
2019-02-27T08:51:46.987Z,51.75
2019-02-27T08:54:35.185Z,33.28
2019-02-27T08:57:23.101Z,32.40
2019-02-27T09:00:14.359Z,34.18
2019-02-27T09:03:03.759Z,39.90
2019-02-27T09:05:53.727Z,36.10
2019-02-27T09:08:44.085Z,35.67
2019-02-27T09:11:32.899Z,37.53
2019-02-27T09:14:20.905Z,39.27
2019-02-27T09:17:08.869Z,37.88
2019-02-27T09:19:56.940Z,49.60
2019-02-27T09:22:37.541Z,35.95
2019-02-27T09:25:23.618Z,35.05
2019-02-27T09:28:03.549Z,41.25
2019-02-27T09:30:44.303Z,43.15
2019-02-27T09:33:25.767Z,42.30
2019-02-27T09:36:07.965Z,43.08
2019-02-27T09:38:49.881Z,34.23
2019-02-27T09:41:51.204Z,37.03
2019-02-27T09:44:36.361Z,37.45
2019-02-27T09:47:16.034Z,31.23
2019-02-27T09:49:56.873Z,33.60
2019-02-27T09:52:37.998Z,37.93
2019-02-27T09:55:20.337Z,47.43
2019-02-27T09:58:01.295Z,33.45
2019-02-27T10:00:42.280Z,35.77
2019-02-27T10:03:23.365Z,29.23
2019-02-27T10:06:04.159Z,31.93
2019-02-27T10:08:45.440Z,28.83
2019-02-27T10:11:26.030Z,34.13
2019-02-27T10:14:06.809Z,30.75
2019-02-27T10:16:47.960Z,30.08
2019-02-27T10:19:28.698Z,29.82
2019-02-27T10:22:09.255Z,31.62
2019-02-27T10:24:49.850Z,30.68
2019-02-27T10:27:31.354Z,39.73
2019-02-27T10:30:11.899Z,30.70
2019-02-27T10:32:53.242Z,27.13
2019-02-27T10:35:34.979Z,30.72
2019-02-27T10:38:16.330Z,35.25
2019-02-27T10:40:57.338Z,30.90
2019-02-27T10:43:37.659Z,29.87
2019-02-27T10:46:23.509Z,26.45
2019-02-27T10:49:01.870Z,27.93
2019-02-27T10:51:45.173Z,25.77
2019-02-27T10:54:26.156Z,30.30
2019-02-27T10:57:06.199Z,26.05
2019-02-27T10:59:54.254Z,27.10
2019-02-27T11:02:45.142Z,26.05
2019-02-27T11:05:15.132Z,24.50
2019-02-27T11:08:04.072Z,25.50
2019-02-27T11:10:52.349Z,26.20
2019-02-27T11:16:40.993Z,23.50
2019-02-27T11:19:18.999Z,24.23
2019-02-27T11:22:09.905Z,23.40
2019-02-27T11:24:58.171Z,27.67
2019-02-27T11:34:12.906Z,24.65
2019-02-27T11:37:00.904Z,25.90
2019-02-27T11:47:02.551Z,28.16
2019-02-27T11:49:50.503Z,28.23
2019-02-27T11:52:55.886Z,37.85
2019-02-27T11:55:47.114Z,25.02
2019-02-27T11:58:27.388Z,24.37
2019-02-27T12:06:55.095Z,28.20
2019-02-27T12:16:02.358Z,26.17
2019-02-27T12:18:42.962Z,30.50
2019-02-27T12:21:25.444Z,34.48
2019-02-27T12:24:06.417Z,33.60
2019-02-27T12:26:47.554Z,30.55
2019-02-27T12:29:28.543Z,23.40
2019-02-27T12:32:08.995Z,24.70
2019-02-27T12:34:50.311Z,21.55
2019-02-27T12:37:34.084Z,24.30
2019-02-27T12:40:14.877Z,26.48
2019-02-27T12:43:02.830Z,28.98
2019-02-27T12:45:50.847Z,22.73
2019-02-27T12:48:38.835Z,23.42
2019-02-27T12:51:46.010Z,19.82
2019-02-27T12:54:34.015Z,21.30
2019-02-27T12:57:02.770Z,22.60
2019-02-27T12:59:53.074Z,23.15
2019-02-27T13:02:41.112Z,22.80
2019-02-27T13:05:29.610Z,19.77
2019-02-27T13:11:57.522Z,18.07
2019-02-27T13:14:45.852Z,19.57
2019-02-27T13:24:07.672Z,15.03
2019-02-27T13:26:45.641Z,17.57
2019-02-27T13:29:33.630Z,17.75
2019-02-27T13:32:26.414Z,18.33
2019-02-27T13:35:11.535Z,25.10
2019-02-27T13:40:53.846Z,18.37
2019-02-27T13:43:34.202Z,17.03
2019-02-27T13:46:15.765Z,16.30
2019-02-27T13:48:56.603Z,21.82
2019-02-27T13:51:40.057Z,11.78
2019-02-27T13:54:19.302Z,11.90
2019-02-27T13:57:00.450Z,12.40
2019-02-27T13:59:42.235Z,13.90
2019-02-27T14:02:24.938Z,9.43
2019-02-27T14:05:06.168Z,12.82
2019-02-27T14:07:47.079Z,10.63
2019-02-27T14:16:37.663Z,11.22
2019-02-27T14:19:18.355Z,12.73
2019-02-27T14:31:13.271Z,12.47
2019-02-27T14:34:12.939Z,17.98
2019-02-27T15:01:56.463Z,21.43
2019-02-27T15:07:22.162Z,17.05
2019-02-27T15:10:02.662Z,27.67
2019-02-27T15:15:49.173Z,31.05
2019-02-27T15:18:29.590Z,18.55
2019-02-27T15:21:12.958Z,22.62
2019-02-27T15:23:53.259Z,20.02
2019-02-27T15:26:34.637Z,20.12
2019-02-27T15:29:15.930Z,15.95
2019-02-27T15:31:56.510Z,19.98
2019-02-27T15:34:37.676Z,17.48
2019-02-27T15:37:19.046Z,18.67
2019-02-27T15:39:59.977Z,15.98
2019-02-27T15:42:42.698Z,19.57
2019-02-27T15:45:47.889Z,20.68
2019-02-27T15:48:24.810Z,18.70
2019-02-27T15:51:05.624Z,16.37
2019-02-27T15:54:05.675Z,20.20
2019-02-27T16:00:24.474Z,17.40
2019-02-27T16:09:10.214Z,16.77
2019-02-27T16:12:09.839Z,18.03
2019-02-27T16:21:05.151Z,22.20
2019-02-27T16:31:06.191Z,15.37
2019-02-27T16:33:55.512Z,17.32
2019-02-27T16:39:41.395Z,27.93
2019-02-27T16:42:27.716Z,35.60
2019-02-27T16:45:16.168Z,19.27
2019-02-27T16:51:35.421Z,17.92
2019-02-27T16:54:24.020Z,26.53
2019-02-27T16:57:13.094Z,15.60
2019-02-27T17:00:36.720Z,17.20
2019-02-27T17:06:18.434Z,17.12
2019-02-27T17:09:10.084Z,17.90
2019-02-27T17:11:57.985Z,17.57
2019-02-27T17:14:39.447Z,15.83
2019-02-27T17:17:09.746Z,25.48
2019-02-27T17:19:57.957Z,17.73
2019-02-27T17:22:57.910Z,18.65
2019-02-27T17:25:35.675Z,27.77
2019-02-27T17:28:23.685Z,24.43
2019-02-27T17:37:37.341Z,19.37
2019-02-27T17:40:25.264Z,23.05
2019-02-27T17:46:06.832Z,31.35
2019-02-27T17:48:55.817Z,21.00
2019-02-27T17:51:44.642Z,30.27
2019-02-27T17:57:25.895Z,29.50
2019-02-27T18:00:51.367Z,28.25
2019-02-27T18:03:41.832Z,21.70
2019-02-27T18:09:26.186Z,21.10
2019-02-27T18:15:08.704Z,19.63
2019-02-27T18:17:56.657Z,28.00
2019-02-27T18:20:37.210Z,24.00
2019-02-27T18:26:36.782Z,18.87
2019-02-27T18:32:06.217Z,17.43
2019-02-27T18:37:59.495Z,24.10
2019-02-27T18:40:43.817Z,25.10
2019-02-27T18:46:29.728Z,22.73
2019-02-27T18:49:11.238Z,16.57
2019-02-27T18:51:52.291Z,28.97
2019-02-27T18:57:52.261Z,20.43
2019-02-27T19:03:51.646Z,23.83
2019-02-27T19:06:33.062Z,21.90
2019-02-27T19:12:28.386Z,20.83
2019-02-27T19:15:23.621Z,23.60
2019-02-27T19:18:06.505Z,16.17
2019-02-27T19:20:46.979Z,21.63
2019-02-27T19:26:31.913Z,17.37
2019-02-27T19:32:30.962Z,22.57
2019-02-27T19:35:11.503Z,24.57
2019-02-27T19:37:52.234Z,21.23
2019-02-27T19:40:33.198Z,17.37
2019-02-27T19:43:13.718Z,18.10
2019-02-27T19:45:55.070Z,20.90
2019-02-27T19:48:36.240Z,17.57
2019-02-27T19:51:17.160Z,18.83
2019-02-27T19:53:59.116Z,17.17
2019-02-27T19:56:39.725Z,16.20
2019-02-27T19:59:24.679Z,16.37
2019-02-27T20:02:01.945Z,19.00
2019-02-27T20:04:50.354Z,16.60
2019-02-27T20:07:38.370Z,15.37
2019-02-27T20:13:20.289Z,15.03
2019-02-27T20:19:01.791Z,20.43
2019-02-27T20:21:50.010Z,16.80
2019-02-27T20:24:40.493Z,19.60
2019-02-27T20:27:29.010Z,21.43
2019-02-27T20:30:17.668Z,24.90
2019-02-27T20:38:53.442Z,14.57
2019-02-27T20:41:43.911Z,19.87
2019-02-27T20:44:31.215Z,22.97
2019-02-27T20:47:21.837Z,15.00
2019-02-27T20:53:04.711Z,17.93
2019-02-27T20:55:52.920Z,17.03
2019-02-27T20:58:41.137Z,21.33
2019-02-27T21:04:16.794Z,12.00
2019-02-27T21:06:58.279Z,18.90
2019-02-27T21:09:42.281Z,17.87
2019-02-27T21:12:22.796Z,15.37
2019-02-27T21:15:03.621Z,15.53
2019-02-27T21:17:44.578Z,17.53
2019-02-27T21:20:25.399Z,21.13
2019-02-27T21:23:06.239Z,15.40
2019-02-27T21:25:49.306Z,17.20
2019-02-27T21:28:29.329Z,14.80
2019-02-27T21:31:10.645Z,21.03
2019-02-27T21:33:51.206Z,15.23
2019-02-27T21:36:36.592Z,16.33
2019-02-27T21:39:15.398Z,20.83
2019-02-27T21:41:56.502Z,15.97
2019-02-27T21:44:37.430Z,11.53
2019-02-27T21:47:18.391Z,14.67
2019-02-27T21:49:59.673Z,15.10
2019-02-27T21:52:40.873Z,15.93
2019-02-27T21:55:21.565Z,17.73
2019-02-27T21:58:02.126Z,16.30
2019-02-27T22:00:44.914Z,17.33
2019-02-27T22:03:25.180Z,18.27
2019-02-27T22:06:05.802Z,17.23
2019-02-27T22:08:47.193Z,13.27
2019-02-27T22:11:28.380Z,17.53
2019-02-27T22:14:09.148Z,14.87
2019-02-27T22:16:49.976Z,18.03
2019-02-27T22:19:30.465Z,13.20
2019-02-27T22:22:11.074Z,19.93
2019-02-27T22:24:52.295Z,13.60
2019-02-27T22:27:34.048Z,15.17
2019-02-27T22:30:15.110Z,14.87
2019-02-27T22:32:55.504Z,10.20
2019-02-27T22:35:37.828Z,20.60
2019-02-27T22:38:18.866Z,9.77
2019-02-27T22:40:59.941Z,11.53
2019-02-27T22:43:40.461Z,15.90
2019-02-27T22:46:22.398Z,11.28
2019-02-27T22:49:03.136Z,11.47
2019-02-27T22:51:45.246Z,11.03
2019-02-27T22:54:26.592Z,11.60
2019-02-27T22:57:06.953Z,9.23
2019-02-27T22:59:47.667Z,21.70
2019-02-27T23:02:31.069Z,11.83
2019-02-27T23:05:11.558Z,10.33
2019-02-27T23:07:52.444Z,13.20
2019-02-27T23:10:33.754Z,13.93
2019-02-27T23:13:14.673Z,10.93
2019-02-27T23:15:58.880Z,16.90
2019-02-27T23:18:40.287Z,10.87
2019-02-27T23:21:22.298Z,9.20
2019-02-27T23:24:02.689Z,13.10
2019-02-27T23:26:44.364Z,14.00
2019-02-27T23:29:25.038Z,8.93
2019-02-27T23:32:06.894Z,11.30
2019-02-27T23:34:48.296Z,8.73
2019-02-27T23:37:29.691Z,10.63
2019-02-27T23:40:16.952Z,11.65
2019-02-27T23:42:53.990Z,20.23
2019-02-27T23:45:34.627Z,8.53
2019-02-27T23:48:16.293Z,9.77
2019-02-27T23:50:57.459Z,10.73
2019-02-27T23:53:39.018Z,11.90
2019-02-27T23:56:07.822Z,9.27
2019-02-27T23:58:36.709Z,9.40
